sensor_id;sensor_type;location;lat;lon;timestamp;P1;durP1;ratioP1;P2;durP2;ratioP2
2320;SDS011;15376;48.540;9.268;2023-03-01T13:24:47;19.83;;;15.50;;
2320;SDS011;15376;48.540;9.268;2023-03-01T13:29:44;19.47;;;14.77;;
2320;SDS011;15376;48.540;9.268;2023-03-01T13:32:19;20.50;;;15.70;;
2320;SDS011;15376;48.540;9.268;2023-03-01T13:35:03;22.40;;;17.23;;
2320;SDS011;15376;48.540;9.268;2023-03-01T13:37:38;18.13;;;14.90;;
2320;SDS011;15376;48.540;9.268;2023-03-01T13:40:56;20.57;;;15.20;;
2320;SDS011;15376;48.540;9.268;2023-03-01T13:42:53;19.37;;;13.80;;
2320;SDS011;15376;48.540;9.268;2023-03-01T13:45:20;19.17;;;15.07;;
2320;SDS011;15376;48.540;9.268;2023-03-01T13:47:52;16.50;;;13.70;;
2320;SDS011;15376;48.540;9.268;2023-03-01T13:50:23;22.33;;;15.20;;
2320;SDS011;15376;48.540;9.268;2023-03-01T13:52:52;18.60;;;14.90;;
2320;SDS011;15376;48.540;9.268;2023-03-01T13:55:23;18.83;;;13.90;;
2320;SDS011;15376;48.540;9.268;2023-03-01T13:57:55;17.57;;;15.23;;
2320;SDS011;15376;48.540;9.268;2023-03-01T14:05:32;20.83;;;16.10;;
2320;SDS011;15376;48.540;9.268;2023-03-01T14:07:59;22.50;;;15.87;;
2320;SDS011;15376;48.540;9.268;2023-03-01T14:10:25;19.63;;;14.43;;
2320;SDS011;15376;48.540;9.268;2023-03-01T14:13:36;21.03;;;15.87;;
2320;SDS011;15376;48.540;9.268;2023-03-01T14:19:18;18.67;;;15.67;;
2320;SDS011;15376;48.540;9.268;2023-03-01T14:22:01;20.00;;;15.60;;
2320;SDS011;15376;48.540;9.268;2023-03-01T14:24:38;19.20;;;16.50;;
2320;SDS011;15376;48.540;9.268;2023-03-01T14:27:12;18.80;;;14.07;;
2320;SDS011;15376;48.540;9.268;2023-03-01T14:29:39;20.40;;;14.30;;
2320;SDS011;15376;48.540;9.268;2023-03-01T14:32:48;17.00;;;14.30;;
2320;SDS011;15376;48.540;9.268;2023-03-01T14:34:55;22.10;;;14.10;;
2320;SDS011;15376;48.540;9.268;2023-03-01T14:39:50;19.83;;;15.80;;
2320;SDS011;15376;48.540;9.268;2023-03-01T14:42:17;29.60;;;26.43;;
2320;SDS011;15376;48.540;9.268;2023-03-01T14:44:45;26.77;;;23.90;;
2320;SDS011;15376;48.540;9.268;2023-03-01T14:47:14;20.60;;;15.67;;
2320;SDS011;15376;48.540;9.268;2023-03-01T14:49:44;46.30;;;41.53;;
2320;SDS011;15376;48.540;9.268;2023-03-01T14:52:20;19.10;;;16.43;;
2320;SDS011;15376;48.540;9.268;2023-03-01T14:54:48;21.03;;;15.33;;
2320;SDS011;15376;48.540;9.268;2023-03-01T15:00:00;17.20;;;15.40;;
2320;SDS011;15376;48.540;9.268;2023-03-01T15:02:30;21.93;;;18.57;;
2320;SDS011;15376;48.540;9.268;2023-03-01T15:04:57;15.97;;;13.33;;
2320;SDS011;15376;48.540;9.268;2023-03-01T15:07:34;16.90;;;14.30;;
2320;SDS011;15376;48.540;9.268;2023-03-01T15:10:04;17.80;;;15.00;;
2320;SDS011;15376;48.540;9.268;2023-03-01T15:12:34;19.67;;;15.60;;
2320;SDS011;15376;48.540;9.268;2023-03-01T15:15:00;22.10;;;16.90;;
2320;SDS011;15376;48.540;9.268;2023-03-01T15:17:43;20.90;;;16.50;;
2320;SDS011;15376;48.540;9.268;2023-03-01T15:20:15;18.70;;;14.40;;
2320;SDS011;15376;48.540;9.268;2023-03-01T15:22:45;16.83;;;13.13;;
2320;SDS011;15376;48.540;9.268;2023-03-01T15:25:20;19.90;;;15.60;;
2320;SDS011;15376;48.540;9.268;2023-03-01T15:27:49;19.53;;;16.23;;
2320;SDS011;15376;48.540;9.268;2023-03-01T15:30:18;18.77;;;14.33;;
2320;SDS011;15376;48.540;9.268;2023-03-01T15:32:47;24.80;;;15.57;;
2320;SDS011;15376;48.540;9.268;2023-03-01T15:38:24;24.33;;;19.97;;
2320;SDS011;15376;48.540;9.268;2023-03-01T15:41:25;18.80;;;15.00;;
2320;SDS011;15376;48.540;9.268;2023-03-01T15:43:53;20.10;;;14.17;;
2320;SDS011;15376;48.540;9.268;2023-03-01T15:46:25;17.30;;;12.37;;
2320;SDS011;15376;48.540;9.268;2023-03-01T15:48:54;21.20;;;15.60;;
2320;SDS011;15376;48.540;9.268;2023-03-01T15:51:26;23.20;;;16.53;;
2320;SDS011;15376;48.540;9.268;2023-03-01T15:53:54;21.30;;;15.70;;
2320;SDS011;15376;48.540;9.268;2023-03-01T15:56:21;19.73;;;15.00;;
2320;SDS011;15376;48.540;9.268;2023-03-01T15:58:46;19.40;;;15.97;;
2320;SDS011;15376;48.540;9.268;2023-03-01T16:01:15;19.20;;;14.30;;
2320;SDS011;15376;48.540;9.268;2023-03-01T16:03:42;19.90;;;15.73;;
2320;SDS011;15376;48.540;9.268;2023-03-01T16:06:11;23.00;;;15.50;;
2320;SDS011;15376;48.540;9.268;2023-03-01T16:08:37;17.80;;;14.67;;
2320;SDS011;15376;48.540;9.268;2023-03-01T16:11:36;16.27;;;13.53;;
2320;SDS011;15376;48.540;9.268;2023-03-01T16:13:57;28.03;;;21.03;;
2320;SDS011;15376;48.540;9.268;2023-03-01T16:16:22;21.53;;;15.70;;
2320;SDS011;15376;48.540;9.268;2023-03-01T16:18:48;19.37;;;14.07;;
2320;SDS011;15376;48.540;9.268;2023-03-01T16:21:14;18.83;;;16.83;;
2320;SDS011;15376;48.540;9.268;2023-03-01T16:23:50;20.13;;;15.30;;
2320;SDS011;15376;48.540;9.268;2023-03-01T16:26:16;19.07;;;15.53;;
2320;SDS011;15376;48.540;9.268;2023-03-01T16:28:42;29.73;;;23.93;;
2320;SDS011;15376;48.540;9.268;2023-03-01T16:31:08;22.20;;;17.47;;
2320;SDS011;15376;48.540;9.268;2023-03-01T16:33:34;20.90;;;16.97;;
2320;SDS011;15376;48.540;9.268;2023-03-01T16:36:05;29.23;;;23.83;;
2320;SDS011;15376;48.540;9.268;2023-03-01T16:38:32;20.73;;;15.40;;
2320;SDS011;15376;48.540;9.268;2023-03-01T16:40:58;23.70;;;18.43;;
2320;SDS011;15376;48.540;9.268;2023-03-01T16:43:23;35.13;;;25.50;;
2320;SDS011;15376;48.540;9.268;2023-03-01T16:45:48;36.47;;;27.00;;
2320;SDS011;15376;48.540;9.268;2023-03-01T16:48:14;17.33;;;13.60;;
2320;SDS011;15376;48.540;9.268;2023-03-01T16:50:39;22.73;;;17.40;;
2320;SDS011;15376;48.540;9.268;2023-03-01T16:53:05;20.43;;;14.30;;
2320;SDS011;15376;48.540;9.268;2023-03-01T16:55:31;19.23;;;14.50;;
2320;SDS011;15376;48.540;9.268;2023-03-01T16:57:56;17.43;;;13.17;;
2320;SDS011;15376;48.540;9.268;2023-03-01T17:00:21;24.10;;;15.87;;
2320;SDS011;15376;48.540;9.268;2023-03-01T17:02:47;24.33;;;15.07;;
2320;SDS011;15376;48.540;9.268;2023-03-01T17:05:13;58.77;;;47.53;;
2320;SDS011;15376;48.540;9.268;2023-03-01T17:07:39;25.13;;;18.50;;
2320;SDS011;15376;48.540;9.268;2023-03-01T17:10:05;28.67;;;25.57;;
2320;SDS011;15376;48.540;9.268;2023-03-01T17:12:33;19.20;;;16.23;;
2320;SDS011;15376;48.540;9.268;2023-03-01T17:14:59;25.70;;;18.73;;
2320;SDS011;15376;48.540;9.268;2023-03-01T17:17:24;31.13;;;28.00;;
2320;SDS011;15376;48.540;9.268;2023-03-01T17:19:50;29.77;;;22.83;;
2320;SDS011;15376;48.540;9.268;2023-03-01T17:22:15;27.87;;;23.77;;
2320;SDS011;15376;48.540;9.268;2023-03-01T17:24:41;29.23;;;22.67;;
2320;SDS011;15376;48.540;9.268;2023-03-01T17:27:08;26.33;;;21.70;;
2320;SDS011;15376;48.540;9.268;2023-03-01T17:29:33;21.20;;;16.27;;
2320;SDS011;15376;48.540;9.268;2023-03-01T17:31:59;28.30;;;16.83;;
2320;SDS011;15376;48.540;9.268;2023-03-01T17:34:25;29.90;;;26.70;;
2320;SDS011;15376;48.540;9.268;2023-03-01T17:36:51;25.97;;;19.13;;
2320;SDS011;15376;48.540;9.268;2023-03-01T17:39:20;27.30;;;19.80;;
2320;SDS011;15376;48.540;9.268;2023-03-01T17:41:50;28.57;;;22.43;;
2320;SDS011;15376;48.540;9.268;2023-03-01T17:44:18;28.63;;;19.63;;
2320;SDS011;15376;48.540;9.268;2023-03-01T17:46:44;28.17;;;19.40;;
2320;SDS011;15376;48.540;9.268;2023-03-01T17:49:10;25.57;;;18.50;;
2320;SDS011;15376;48.540;9.268;2023-03-01T17:51:35;24.03;;;18.27;;
2320;SDS011;15376;48.540;9.268;2023-03-01T17:54:00;24.70;;;17.30;;
2320;SDS011;15376;48.540;9.268;2023-03-01T17:56:26;27.33;;;19.47;;
2320;SDS011;15376;48.540;9.268;2023-03-01T17:58:52;22.03;;;16.30;;
2320;SDS011;15376;48.540;9.268;2023-03-01T18:01:18;22.47;;;15.80;;
2320;SDS011;15376;48.540;9.268;2023-03-01T18:03:45;21.77;;;16.30;;
2320;SDS011;15376;48.540;9.268;2023-03-01T18:06:15;20.90;;;14.93;;
2320;SDS011;15376;48.540;9.268;2023-03-01T18:08:46;22.03;;;17.60;;
2320;SDS011;15376;48.540;9.268;2023-03-01T18:11:13;22.20;;;16.27;;
2320;SDS011;15376;48.540;9.268;2023-03-01T18:13:39;21.13;;;17.13;;
2320;SDS011;15376;48.540;9.268;2023-03-01T18:16:08;23.43;;;15.77;;
2320;SDS011;15376;48.540;9.268;2023-03-01T18:18:37;20.33;;;15.00;;
2320;SDS011;15376;48.540;9.268;2023-03-01T18:21:03;24.00;;;16.60;;
2320;SDS011;15376;48.540;9.268;2023-03-01T18:23:32;26.87;;;15.73;;
2320;SDS011;15376;48.540;9.268;2023-03-01T18:25:59;24.93;;;17.00;;
2320;SDS011;15376;48.540;9.268;2023-03-01T18:28:26;25.57;;;19.93;;
2320;SDS011;15376;48.540;9.268;2023-03-01T18:30:56;25.00;;;18.10;;
2320;SDS011;15376;48.540;9.268;2023-03-01T18:33:22;24.97;;;18.13;;
2320;SDS011;15376;48.540;9.268;2023-03-01T18:35:47;23.37;;;19.43;;
2320;SDS011;15376;48.540;9.268;2023-03-01T18:38:14;25.50;;;18.17;;
2320;SDS011;15376;48.540;9.268;2023-03-01T18:40:40;26.53;;;18.33;;
2320;SDS011;15376;48.540;9.268;2023-03-01T18:43:06;34.27;;;20.20;;
2320;SDS011;15376;48.540;9.268;2023-03-01T18:45:32;25.87;;;17.80;;
2320;SDS011;15376;48.540;9.268;2023-03-01T18:47:57;31.07;;;20.70;;
2320;SDS011;15376;48.540;9.268;2023-03-01T18:50:22;30.70;;;18.97;;
2320;SDS011;15376;48.540;9.268;2023-03-01T18:52:48;27.40;;;20.00;;
2320;SDS011;15376;48.540;9.268;2023-03-01T18:55:13;25.13;;;17.73;;
2320;SDS011;15376;48.540;9.268;2023-03-01T18:57:39;30.70;;;19.73;;
2320;SDS011;15376;48.540;9.268;2023-03-01T19:00:04;27.80;;;18.63;;
2320;SDS011;15376;48.540;9.268;2023-03-01T19:02:30;24.20;;;17.50;;
2320;SDS011;15376;48.540;9.268;2023-03-01T19:04:55;23.87;;;17.50;;
2320;SDS011;15376;48.540;9.268;2023-03-01T19:07:21;23.60;;;17.10;;
2320;SDS011;15376;48.540;9.268;2023-03-01T19:09:46;29.50;;;18.37;;
2320;SDS011;15376;48.540;9.268;2023-03-01T19:12:12;25.80;;;18.70;;
2320;SDS011;15376;48.540;9.268;2023-03-01T19:14:37;27.20;;;18.37;;
2320;SDS011;15376;48.540;9.268;2023-03-01T19:17:02;26.10;;;18.77;;
2320;SDS011;15376;48.540;9.268;2023-03-01T19:19:28;26.40;;;17.50;;
2320;SDS011;15376;48.540;9.268;2023-03-01T19:21:53;26.43;;;17.90;;
2320;SDS011;15376;48.540;9.268;2023-03-01T19:24:18;27.57;;;19.97;;
2320;SDS011;15376;48.540;9.268;2023-03-01T19:26:44;26.67;;;19.30;;
2320;SDS011;15376;48.540;9.268;2023-03-01T19:29:09;29.03;;;18.50;;
2320;SDS011;15376;48.540;9.268;2023-03-01T19:31:36;27.40;;;18.53;;
2320;SDS011;15376;48.540;9.268;2023-03-01T19:34:02;30.67;;;19.33;;
2320;SDS011;15376;48.540;9.268;2023-03-01T19:36:28;29.13;;;19.73;;
2320;SDS011;15376;48.540;9.268;2023-03-01T19:39:00;27.30;;;17.60;;
2320;SDS011;15376;48.540;9.268;2023-03-01T19:41:27;24.47;;;18.83;;
2320;SDS011;15376;48.540;9.268;2023-03-01T19:43:53;27.03;;;18.27;;
2320;SDS011;15376;48.540;9.268;2023-03-01T19:46:18;25.30;;;19.47;;
2320;SDS011;15376;48.540;9.268;2023-03-01T19:48:44;32.80;;;20.60;;
2320;SDS011;15376;48.540;9.268;2023-03-01T19:51:10;27.97;;;18.97;;
2320;SDS011;15376;48.540;9.268;2023-03-01T19:53:37;30.67;;;19.70;;
2320;SDS011;15376;48.540;9.268;2023-03-01T19:56:03;28.60;;;18.53;;
2320;SDS011;15376;48.540;9.268;2023-03-01T19:58:32;31.77;;;20.93;;
2320;SDS011;15376;48.540;9.268;2023-03-01T20:00:58;35.93;;;20.90;;
2320;SDS011;15376;48.540;9.268;2023-03-01T20:03:27;33.80;;;22.60;;
2320;SDS011;15376;48.540;9.268;2023-03-01T20:05:55;40.80;;;23.50;;
2320;SDS011;15376;48.540;9.268;2023-03-01T20:08:21;40.87;;;25.43;;
2320;SDS011;15376;48.540;9.268;2023-03-01T20:10:47;45.30;;;27.57;;
2320;SDS011;15376;48.540;9.268;2023-03-01T20:13:13;39.87;;;25.03;;
2320;SDS011;15376;48.540;9.268;2023-03-01T20:15:42;33.77;;;22.40;;
2320;SDS011;15376;48.540;9.268;2023-03-01T20:18:08;32.27;;;20.03;;
2320;SDS011;15376;48.540;9.268;2023-03-01T20:20:35;30.70;;;20.90;;
2320;SDS011;15376;48.540;9.268;2023-03-01T20:23:00;30.80;;;20.97;;
2320;SDS011;15376;48.540;9.268;2023-03-01T20:25:26;27.50;;;19.77;;
2320;SDS011;15376;48.540;9.268;2023-03-01T20:27:51;27.53;;;19.57;;
2320;SDS011;15376;48.540;9.268;2023-03-01T20:30:17;28.67;;;19.83;;
2320;SDS011;15376;48.540;9.268;2023-03-01T20:32:42;31.27;;;19.13;;
2320;SDS011;15376;48.540;9.268;2023-03-01T20:35:08;34.43;;;19.43;;
2320;SDS011;15376;48.540;9.268;2023-03-01T20:37:35;32.63;;;20.40;;
2320;SDS011;15376;48.540;9.268;2023-03-01T20:40:01;27.80;;;18.80;;
2320;SDS011;15376;48.540;9.268;2023-03-01T20:42:27;26.50;;;19.87;;
2320;SDS011;15376;48.540;9.268;2023-03-01T20:44:52;27.27;;;19.83;;
2320;SDS011;15376;48.540;9.268;2023-03-01T20:47:18;31.77;;;20.83;;
2320;SDS011;15376;48.540;9.268;2023-03-01T20:49:45;30.97;;;21.70;;
2320;SDS011;15376;48.540;9.268;2023-03-01T20:52:11;29.67;;;19.33;;
2320;SDS011;15376;48.540;9.268;2023-03-01T20:54:36;32.17;;;22.60;;
2320;SDS011;15376;48.540;9.268;2023-03-01T20:57:02;31.23;;;21.07;;
2320;SDS011;15376;48.540;9.268;2023-03-01T20:59:27;31.77;;;19.90;;
2320;SDS011;15376;48.540;9.268;2023-03-01T21:01:52;31.50;;;19.77;;
2320;SDS011;15376;48.540;9.268;2023-03-01T21:04:18;31.27;;;20.00;;
2320;SDS011;15376;48.540;9.268;2023-03-01T21:06:44;27.97;;;19.30;;
2320;SDS011;15376;48.540;9.268;2023-03-01T21:09:09;36.37;;;22.20;;
2320;SDS011;15376;48.540;9.268;2023-03-01T21:11:35;25.90;;;20.20;;
2320;SDS011;15376;48.540;9.268;2023-03-01T21:14:01;33.33;;;22.00;;
2320;SDS011;15376;48.540;9.268;2023-03-01T21:16:29;29.13;;;20.87;;
2320;SDS011;15376;48.540;9.268;2023-03-01T21:18:54;29.43;;;20.90;;
2320;SDS011;15376;48.540;9.268;2023-03-01T21:21:20;24.90;;;18.03;;
2320;SDS011;15376;48.540;9.268;2023-03-01T21:23:47;29.70;;;19.37;;
2320;SDS011;15376;48.540;9.268;2023-03-01T21:26:14;34.90;;;21.10;;
2320;SDS011;15376;48.540;9.268;2023-03-01T21:28:41;27.87;;;19.90;;
2320;SDS011;15376;48.540;9.268;2023-03-01T21:31:08;31.30;;;21.50;;
2320;SDS011;15376;48.540;9.268;2023-03-01T21:33:39;28.47;;;19.13;;
2320;SDS011;15376;48.540;9.268;2023-03-01T21:36:17;27.57;;;18.63;;
2320;SDS011;15376;48.540;9.268;2023-03-01T21:38:44;27.90;;;18.13;;
2320;SDS011;15376;48.540;9.268;2023-03-01T21:41:15;27.13;;;18.57;;
2320;SDS011;15376;48.540;9.268;2023-03-01T21:43:43;30.10;;;19.27;;
2320;SDS011;15376;48.540;9.268;2023-03-01T21:46:11;37.90;;;20.93;;
2320;SDS011;15376;48.540;9.268;2023-03-01T21:48:40;36.60;;;22.30;;
2320;SDS011;15376;48.540;9.268;2023-03-01T21:51:06;33.63;;;20.63;;
2320;SDS011;15376;48.540;9.268;2023-03-01T21:53:33;30.37;;;19.17;;
2320;SDS011;15376;48.540;9.268;2023-03-01T21:56:00;32.90;;;20.90;;
2320;SDS011;15376;48.540;9.268;2023-03-01T21:58:29;36.73;;;21.50;;
2320;SDS011;15376;48.540;9.268;2023-03-01T22:00:56;31.40;;;20.13;;
2320;SDS011;15376;48.540;9.268;2023-03-01T22:03:22;30.47;;;21.67;;
2320;SDS011;15376;48.540;9.268;2023-03-01T22:05:55;30.73;;;19.40;;
2320;SDS011;15376;48.540;9.268;2023-03-01T22:08:22;37.77;;;21.97;;
2320;SDS011;15376;48.540;9.268;2023-03-01T22:10:48;31.70;;;22.33;;
2320;SDS011;15376;48.540;9.268;2023-03-01T22:13:16;31.43;;;22.33;;
2320;SDS011;15376;48.540;9.268;2023-03-01T22:15:42;34.03;;;21.93;;
2320;SDS011;15376;48.540;9.268;2023-03-01T22:18:09;33.90;;;22.43;;
2320;SDS011;15376;48.540;9.268;2023-03-01T22:20:35;34.63;;;23.07;;
2320;SDS011;15376;48.540;9.268;2023-03-01T22:23:01;33.10;;;21.43;;
2320;SDS011;15376;48.540;9.268;2023-03-01T22:25:28;29.00;;;20.93;;
2320;SDS011;15376;48.540;9.268;2023-03-01T22:27:54;32.20;;;21.60;;
2320;SDS011;15376;48.540;9.268;2023-03-01T22:30:19;34.70;;;23.33;;
2320;SDS011;15376;48.540;9.268;2023-03-01T22:32:45;30.73;;;22.10;;
2320;SDS011;15376;48.540;9.268;2023-03-01T22:35:10;30.27;;;22.40;;
2320;SDS011;15376;48.540;9.268;2023-03-01T22:37:36;33.17;;;23.27;;
2320;SDS011;15376;48.540;9.268;2023-03-01T22:40:02;32.80;;;21.83;;
2320;SDS011;15376;48.540;9.268;2023-03-01T22:42:28;33.40;;;21.60;;
2320;SDS011;15376;48.540;9.268;2023-03-01T22:44:54;28.10;;;19.17;;
2320;SDS011;15376;48.540;9.268;2023-03-01T22:47:19;36.23;;;22.60;;
2320;SDS011;15376;48.540;9.268;2023-03-01T22:49:45;31.20;;;22.30;;
2320;SDS011;15376;48.540;9.268;2023-03-01T22:52:10;30.63;;;21.90;;
2320;SDS011;15376;48.540;9.268;2023-03-01T22:54:35;39.13;;;24.17;;
2320;SDS011;15376;48.540;9.268;2023-03-01T22:57:01;39.23;;;22.57;;
2320;SDS011;15376;48.540;9.268;2023-03-01T22:59:26;36.70;;;23.30;;
2320;SDS011;15376;48.540;9.268;2023-03-01T23:01:52;35.83;;;23.27;;
2320;SDS011;15376;48.540;9.268;2023-03-01T23:04:19;30.57;;;21.87;;
2320;SDS011;15376;48.540;9.268;2023-03-01T23:06:45;32.50;;;21.80;;
2320;SDS011;15376;48.540;9.268;2023-03-01T23:09:24;39.33;;;22.50;;
2320;SDS011;15376;48.540;9.268;2023-03-01T23:11:52;37.80;;;24.20;;
2320;SDS011;15376;48.540;9.268;2023-03-01T23:14:18;30.23;;;20.83;;
2320;SDS011;15376;48.540;9.268;2023-03-01T23:16:45;33.30;;;22.30;;
2320;SDS011;15376;48.540;9.268;2023-03-01T23:19:11;32.70;;;20.73;;
2320;SDS011;15376;48.540;9.268;2023-03-01T23:21:37;36.80;;;23.60;;
2320;SDS011;15376;48.540;9.268;2023-03-01T23:24:08;34.60;;;23.00;;
2320;SDS011;15376;48.540;9.268;2023-03-01T23:26:33;35.00;;;22.20;;
2320;SDS011;15376;48.540;9.268;2023-03-01T23:28:58;37.20;;;25.17;;
2320;SDS011;15376;48.540;9.268;2023-03-01T23:31:24;31.17;;;22.63;;
2320;SDS011;15376;48.540;9.268;2023-03-01T23:33:53;38.03;;;23.73;;
2320;SDS011;15376;48.540;9.268;2023-03-01T23:36:24;35.53;;;22.47;;
2320;SDS011;15376;48.540;9.268;2023-03-01T23:38:58;35.70;;;23.80;;
2320;SDS011;15376;48.540;9.268;2023-03-01T23:41:27;37.90;;;24.47;;
2320;SDS011;15376;48.540;9.268;2023-03-01T23:43:55;35.33;;;22.93;;
2320;SDS011;15376;48.540;9.268;2023-03-01T23:46:23;34.80;;;23.87;;
2320;SDS011;15376;48.540;9.268;2023-03-01T23:48:51;39.43;;;22.80;;
2320;SDS011;15376;48.540;9.268;2023-03-01T23:51:17;34.40;;;22.17;;
2320;SDS011;15376;48.540;9.268;2023-03-01T23:53:44;36.07;;;23.80;;
2320;SDS011;15376;48.540;9.268;2023-03-01T23:56:19;35.40;;;23.20;;
2320;SDS011;15376;48.540;9.268;2023-03-01T23:58:50;38.53;;;23.37;;
